Austin, TX (78772)

11:09 PM CDT on July 25, 2016 (GMT -0500)
Edgewick Condos | | Change Station

Elev 509 ft 30.23 °N, 97.74 °W | Updated 21 seconds ago

Light Rain
Light Rain
77.2 °F
Feels Like 79 °F
N
0.0
Wind Variable Wind from West

Today
High -- | Low -- °F
--% Chance of Precip.
Yesterday
High -- | Low -- °F
Precip. -- in
Pressure 29.90 in
Visibility 10.0 miles
Clouds Few 5500 ft
Mostly Cloudy 10000 ft
Mostly Cloudy 11000 ft
Heat Index 79 °F
Dew Point 75 °F
Humidity 92%
Rainfall 0.40 in
Snow Depth Not available.
6:45 AM 8:28 PM
Waning Gibbous, 59% visible
METAR KAUS 260353Z 16004KT 10SM -RA FEW055 BKN100 BKN110 26/24 A2993 RMK AO2 RAB0258 SLP125 P0003 T02560244
Pressure 29.90 in
Visibility 10.0 miles
Clouds Few 5500 ft
Mostly Cloudy 10000 ft
Mostly Cloudy 11000 ft
Heat Index 79 °F
Dew Point 75 °F
Humidity 92%
Rainfall 0.40 in
Snow Depth Not available.
6:45 AM 8:28 PM
Waning Gibbous, 59% visible
METAR KAUS 260353Z 16004KT 10SM -RA FEW055 BKN100 BKN110 26/24 A2993 RMK AO2 RAB0258 SLP125 P0003 T02560244

10-Day Weather Forecast

Almanac

Astronomy

Jul. 25, 2016 Rise Set
Actual Time
Civil Twilight
Nautical Twilight
Astronomical Twilight
Moon
Length of Visible Light
Length of Day
Tomorrow will be .
, % of the Moon is Illuminated

Today's Extremes

State Highs State Lows

Community

WunderPhotos

Upload Photos

1,927,530 photos uploaded!

WunderBlog® & News

Nearby

Air Quality

  Air Quality AQ Index Pollutant
Not available.

Snow Depth

Station Depth Elevation

Earthquake Activity

City Distance Mag. Time & Date
Minimum magnitude displayed is 2.5.

Coastal Water Temperatures

Place Temperature

Stations

Nearby Weather Stations

Station Location Temp. Windchill Dew Point Humidity Wind Precip. Elev Updated Type
                   

Watches & Warnings

There are currently no watches in effect.